Time;durP1;ratioP1;P1;durP2;ratioP2;P2;SDS_P1;SDS_P2;PMS_P1;PMS_P2;Temp;Humidity;BMP_temperature;BMP_pressure;BME280_temperature;BME280_humidity;BME280_pressure;Samples;Min_cycle;Max_cycle;Signal;HPM_P1;HPM_P2
2023/03/21 00:00:56;;;;;;;9.27;6.20;;;8.60;82.30;;;8.81;68.31;98148.97;5074883;28;20502;-73
2023/03/21 00:03:23;;;;;;;11.40;6.87;;;8.60;81.90;;;8.70;68.31;98137.72;5070861;28;20458;-72
2023/03/21 00:05:52;;;;;;;10.03;7.20;;;8.60;81.90;;;8.70;68.43;98156.59;5067377;28;20458;-75
2023/03/21 00:08:20;;;;;;;6.43;5.73;;;8.60;81.80;;;8.71;68.11;98152.03;5070922;28;20522;-70
2023/03/21 00:10:56;;;;;;;7.30;6.03;;;8.60;81.60;;;8.75;67.92;98154.13;5086522;27;22308;-71
2023/03/21 00:13:25;;;;;;;6.40;5.80;;;8.60;81.70;;;8.76;68.12;98150.41;5077143;28;20544;-71
2023/03/21 00:15:53;;;;;;;7.13;5.80;;;8.60;81.70;;;8.67;68.20;98154.28;5090365;27;20979;-70
2023/03/21 00:18:21;;;;;;;5.73;5.23;;;8.50;81.60;;;8.70;68.13;98156.59;5072517;28;20981;-70
2023/03/21 00:20:57;;;;;;;6.63;5.40;;;8.50;81.90;;;8.54;67.85;98156.91;5075391;28;20470;-71
2023/03/21 00:23:25;;;;;;;6.30;5.70;;;8.50;81.50;;;8.66;67.81;98149.94;5077765;28;20455;-70
2023/03/21 00:25:54;;;;;;;5.93;5.13;;;8.60;81.20;;;8.58;67.32;98145.56;5094789;28;20804;-70
2023/03/21 00:28:22;;;;;;;5.90;5.00;;;8.60;81.00;;;8.73;67.43;98149.97;5083036;28;23671;-73
2023/03/21 00:30:50;;;;;;;5.97;4.90;;;8.70;80.90;;;8.92;66.56;98154.59;5079511;28;20458;-70
2023/03/21 00:33:20;;;;;;;5.30;4.67;;;8.70;80.70;;;8.53;66.60;98112.16;5114593;27;21975;-69
2023/03/21 00:35:51;;;;;;;5.97;4.30;;;8.70;80.60;;;8.90;66.72;98147.78;5082634;28;20463;-69
2023/03/21 00:38:18;;;;;;;5.53;4.20;;;8.70;80.30;;;8.75;67.08;98143.38;5089446;28;20447;-69
2023/03/21 00:40:48;;;;;;;5.03;4.60;;;8.70;80.30;;;8.89;65.86;98138.84;5125868;27;20813;-71
2023/03/21 00:43:18;;;;;;;4.53;4.00;;;8.70;80.20;;;8.91;66.53;98138.66;5127976;27;20532;-69
2023/03/21 00:45:46;;;;;;;8.13;5.10;;;8.80;80.30;;;8.95;65.61;98131.81;5078571;28;20476;-70
2023/03/21 00:48:14;;;;;;;5.30;4.70;;;8.80;80.10;;;8.93;66.40;98131.19;5095771;28;20445;-69
2023/03/21 00:50:44;;;;;;;6.93;4.73;;;8.80;80.10;;;8.81;66.71;98130.09;5107164;28;20478;-71
2023/03/21 00:53:11;;;;;;;5.13;4.43;;;8.70;80.00;;;8.75;66.56;98129.91;5096451;28;20460;-69
2023/03/21 00:55:39;;;;;;;5.33;4.73;;;8.60;79.80;;;8.72;66.43;98133.00;5104958;28;20469;-71
2023/03/21 00:58:06;;;;;;;6.60;4.47;;;8.60;80.00;;;8.60;66.83;98113.84;5095101;28;20457;-69
2023/03/21 01:00:36;;;;;;;6.80;4.87;;;8.60;80.10;;;8.57;66.73;98119.66;5096602;28;20834;-69
2023/03/21 01:03:06;;;;;;;6.53;5.03;;;8.50;80.20;;;8.47;66.64;98098.44;5085149;28;20443;-69
2023/03/21 01:08:22;;;;;;;4.97;4.00;;;8.40;80.30;;;8.45;66.69;98115.81;5095215;28;20435;-69
2023/03/21 01:10:51;;;;;;;6.20;5.60;;;8.30;80.40;;;8.33;67.43;98112.88;5095886;27;20452;-69
2023/03/21 01:13:23;;;;;;;5.87;4.90;;;8.10;80.50;;;8.20;67.58;98106.38;5087580;28;20467;-72
2023/03/21 01:15:55;;;;;;;9.30;4.60;;;8.00;80.60;;;8.14;67.36;98107.19;5087068;28;20520;-69
2023/03/21 01:18:26;;;;;;;7.17;5.00;;;8.10;80.50;;;8.25;66.67;98111.19;5077511;28;20469;-70
2023/03/21 01:20:54;;;;;;;5.60;4.40;;;8.10;80.30;;;8.18;66.56;98105.75;5114985;27;20459;-70
2023/03/21 01:23:23;;;;;;;6.10;4.60;;;8.00;80.10;;;8.10;67.36;98113.97;5098597;27;20455;-72
2023/03/21 01:25:52;;;;;;;6.87;4.57;;;8.00;80.10;;;8.16;67.07;98104.28;5094032;27;20452;-70
2023/03/21 01:28:20;;;;;;;7.10;4.57;;;8.00;80.00;;;8.14;67.03;98112.56;5076398;28;20451;-71
2023/03/21 01:30:49;;;;;;;5.40;4.20;;;8.00;79.80;;;8.20;67.01;98114.44;5075198;28;20967;-71
2023/03/21 01:33:19;;;;;;;5.50;4.07;;;8.10;79.90;;;8.07;66.83;98103.59;5071593;28;20467;-71
2023/03/21 01:35:47;;;;;;;6.00;4.37;;;8.00;79.70;;;8.14;66.72;98099.09;5097325;27;20495;-71
2023/03/21 01:38:15;;;;;;;4.90;3.70;;;8.00;79.70;;;8.28;66.73;98107.25;5089679;28;20482;-72
2023/03/21 01:40:46;;;;;;;4.60;4.20;;;8.00;79.80;;;8.33;66.15;98104.78;5110133;27;20462;-71
2023/03/21 01:43:28;;;;;;;7.20;4.97;;;8.10;79.60;;;8.36;66.23;98109.78;5081713;28;20530;-73
2023/03/21 01:46:32;;;;;;;5.20;4.27;;;8.10;80.10;;;8.14;66.34;98098.25;5076151;28;20518;-72
2023/03/21 01:49:05;;;;;;;4.63;4.17;;;8.00;79.90;;;8.13;66.33;98102.81;5086970;28;20474;-74
2023/03/21 01:51:36;;;;;;;6.67;4.70;;;7.90;79.90;;;8.10;66.65;98107.78;5077522;28;20461;-70
2023/03/21 01:54:06;;;;;;;5.40;3.93;;;7.90;79.90;;;8.20;66.57;98098.31;5081569;28;20446;-72
2023/03/21 01:56:37;;;;;;;4.90;4.40;;;7.90;80.10;;;8.19;66.00;98098.53;5086687;28;20949;-69
2023/03/21 01:59:11;;;;;;;4.67;4.00;;;7.90;80.00;;;8.01;66.28;98088.25;5091708;28;20452;-69
2023/03/21 02:01:41;;;;;;;5.23;4.67;;;7.90;79.60;;;7.92;66.26;98080.31;5082089;28;20443;-73
2023/03/21 02:04:11;;;;;;;5.70;4.00;;;7.90;79.70;;;7.99;66.22;98084.94;5080389;28;20479;-70
2023/03/21 02:06:46;;;;;;;6.47;3.90;;;7.80;79.50;;;7.90;65.98;98079.69;5097618;27;20454;-69
2023/03/21 02:09:22;;;;;;;6.30;4.70;;;7.80;79.50;;;8.12;65.58;98085.03;5083591;28;21023;-72
2023/03/21 02:11:50;;;;;;;5.53;4.53;;;7.90;79.50;;;8.22;65.31;98085.47;5081650;28;20502;-72
2023/03/21 02:14:20;;;;;;;6.40;4.13;;;7.90;79.20;;;8.29;64.49;98080.13;5090337;28;20461;-69
2023/03/21 02:16:59;;;;;;;5.40;4.50;;;8.00;78.70;;;8.14;64.30;98072.19;5120682;27;20466;-69
2023/03/21 02:20:10;;;;;;;4.67;4.17;;;7.90;78.20;;;8.15;64.54;98083.78;5092759;28;20454;-72
2023/03/21 02:23:14;;;;;;;7.87;3.77;;;7.90;78.60;;;7.71;64.54;98034.66;5103311;27;20884;-70
2023/03/21 02:26:11;;;;;;;8.10;3.57;;;7.80;78.20;;;7.97;64.60;98078.94;5104742;27;20487;-70
2023/03/21 02:28:42;;;;;;;5.00;3.50;;;7.80;78.10;;;7.86;64.88;98075.75;5078553;28;20463;-76
2023/03/21 02:31:31;;;;;;;6.30;4.13;;;7.70;78.40;;;7.87;65.27;98077.41;5097796;28;20450;-70
2023/03/21 02:34:49;;;;;;;5.30;4.13;;;7.60;78.60;;;7.73;66.17;98081.03;5102798;28;20475;-70
2023/03/21 02:37:22;;;;;;;6.67;4.20;;;7.50;78.70;;;7.67;66.00;98081.81;5085444;28;20441;-71
2023/03/21 02:40:06;;;;;;;6.33;4.43;;;7.50;79.10;;;7.61;66.23;98070.78;5087862;28;20461;-68
2023/03/21 02:42:44;;;;;;;6.00;4.17;;;7.40;79.30;;;7.75;66.39;98087.88;5078843;28;20479;-71
2023/03/21 02:45:18;;;;;;;6.93;4.77;;;7.50;79.60;;;7.79;66.64;98080.22;5076667;28;20457;-73
2023/03/21 02:47:50;;;;;;;4.93;4.33;;;7.50;79.50;;;7.97;66.43;98082.44;5075113;28;21106;-70
2023/03/21 02:50:22;;;;;;;5.00;4.50;;;7.70;79.70;;;7.94;66.42;98080.94;5077793;28;20464;-69
2023/03/21 02:52:52;;;;;;;6.43;4.73;;;7.80;79.50;;;7.99;66.48;98082.25;5083290;28;21587;-69
2023/03/21 02:55:25;;;;;;;6.80;4.90;;;7.80;79.70;;;8.19;66.15;98067.03;5076420;28;20446;-73
2023/03/21 02:57:56;;;;;;;6.53;4.70;;;8.00;79.80;;;8.24;65.98;98085.28;5069448;28;21024;-75
2023/03/21 03:00:26;;;;;;;4.50;4.00;;;8.00;79.50;;;8.17;66.38;98085.25;5079566;28;20448;-70
2023/03/21 03:02:54;;;;;;;4.83;4.33;;;8.10;79.50;;;8.30;66.52;98075.59;5079111;28;20512;-74
2023/03/21 03:05:24;;;;;;;6.40;4.57;;;8.10;79.60;;;8.39;66.16;98076.25;5077253;28;20999;-73
2023/03/21 03:08:13;;;;;;;6.10;4.60;;;8.20;79.60;;;8.33;66.30;98069.81;5080624;28;20447;-72
2023/03/21 03:10:56;;;;;;;7.00;4.63;;;8.20;79.60;;;8.39;65.61;98069.00;5064511;28;20451;-72
2023/03/21 03:13:41;;;;;;;5.47;5.00;;;8.10;79.40;;;8.32;66.00;98074.34;5071723;28;20976;-75
2023/03/21 03:16:24;;;;;;;5.73;4.80;;;8.10;79.30;;;8.27;66.15;98070.63;5068752;28;20467;-70
2023/03/21 03:18:54;;;;;;;5.30;4.90;;;8.10;79.60;;;8.42;65.94;98063.22;5094132;27;20948;-71
2023/03/21 03:21:31;;;;;;;4.70;4.20;;;8.10;79.70;;;8.38;66.67;98059.25;5109695;27;20533;-71
2023/03/21 03:24:05;;;;;;;5.17;4.67;;;8.10;79.80;;;8.40;66.38;98064.44;5093289;27;20451;-70
2023/03/21 03:26:36;;;;;;;5.00;4.50;;;8.20;79.70;;;8.63;65.13;98066.84;5077419;28;20544;-70
2023/03/21 03:29:07;;;;;;;5.80;4.40;;;8.30;79.40;;;8.52;64.56;98072.81;5105923;27;20857;-70
2023/03/21 03:31:40;;;;;;;7.30;4.13;;;8.20;78.90;;;8.56;64.87;98068.66;5070108;28;20544;-71
2023/03/21 03:34:13;;;;;;;7.50;4.93;;;8.20;78.90;;;8.61;64.27;98071.63;5067026;28;20975;-71
2023/03/21 03:36:46;;;;;;;5.80;4.90;;;8.30;78.80;;;8.64;64.16;98060.44;5082285;27;20458;-70
2023/03/21 03:39:16;;;;;;;5.17;4.40;;;8.30;78.80;;;8.69;64.63;98067.91;5070697;28;20451;-69
2023/03/21 03:41:49;;;;;;;7.67;4.60;;;8.40;78.80;;;8.64;64.62;98063.13;5101831;27;21418;-70
2023/03/21 03:44:16;;;;;;;10.70;4.77;;;8.40;78.90;;;8.54;64.41;98060.81;5069432;28;20453;-73
2023/03/21 03:46:51;;;;;;;5.50;4.20;;;8.40;78.70;;;8.47;64.37;98052.69;5070763;28;20451;-71
2023/03/21 03:49:24;;;;;;;5.07;4.57;;;8.30;78.50;;;8.55;64.54;98056.25;5070472;28;21250;-70
2023/03/21 03:51:59;;;;;;;5.07;4.40;;;8.30;78.50;;;8.66;64.02;98054.84;5073080;28;20473;-71
2023/03/21 03:54:33;;;;;;;5.23;4.73;;;8.40;78.60;;;8.69;64.07;98049.88;5066978;28;20463;-71
2023/03/21 03:57:00;;;;;;;9.37;4.10;;;8.40;78.50;;;8.65;64.09;98056.69;5063304;28;20693;-72
2023/03/21 03:59:28;;;;;;;5.27;4.40;;;8.40;78.40;;;8.52;64.24;98046.72;5061594;28;20539;-71
2023/03/21 04:01:55;;;;;;;4.97;4.10;;;8.30;78.60;;;8.13;64.52;97989.78;5074096;28;20791;-71
2023/03/21 04:04:27;;;;;;;8.37;4.87;;;8.30;78.70;;;8.38;65.33;98051.19;5084217;28;20463;-68
2023/03/21 04:06:54;;;;;;;5.60;4.67;;;8.20;79.00;;;8.46;65.90;98053.72;5072682;28;20462;-67
2023/03/21 04:09:23;;;;;;;5.47;4.70;;;8.20;79.40;;;8.39;65.98;98052.84;5070876;28;20462;-69
2023/03/21 04:11:52;;;;;;;6.10;4.93;;;8.10;79.40;;;8.11;65.97;98007.97;5072495;28;21401;-70
2023/03/21 04:14:20;;;;;;;7.90;5.50;;;8.10;79.50;;;8.31;66.21;98044.94;5064584;28;20479;-67
2023/03/21 04:16:48;;;;;;;8.83;5.90;;;8.00;79.60;;;8.23;66.76;98046.75;5062600;28;20866;-71
2023/03/21 04:19:15;;;;;;;7.93;6.20;;;8.00;79.80;;;8.16;66.89;98047.75;5062137;28;20463;-72
2023/03/21 04:21:43;;;;;;;7.10;5.50;;;7.90;80.10;;;7.96;67.33;98028.81;5063436;28;21612;-68
2023/03/21 04:24:10;;;;;;;6.20;5.60;;;7.80;80.30;;;7.61;67.97;97989.31;5075620;28;20463;-68
2023/03/21 04:26:38;;;;;;;8.47;5.80;;;7.70;80.60;;;7.83;68.59;98035.78;5078866;28;21129;-67
2023/03/21 04:29:07;;;;;;;8.80;6.30;;;7.60;81.00;;;8.10;68.43;98049.38;5098746;28;20445;-67
2023/03/21 04:31:34;;;;;;;8.07;6.87;;;7.70;81.80;;;8.09;68.65;98066.56;5087987;28;20456;-67
2023/03/21 04:34:08;;;;;;;7.57;6.77;;;7.80;81.70;;;7.99;69.30;98042.69;5073301;28;20485;-68
2023/03/21 04:36:41;;;;;;;9.03;7.60;;;7.70;82.30;;;7.82;71.80;98047.59;5088247;28;20460;-66
2023/03/21 04:39:11;;;;;;;7.80;6.97;;;7.70;84.40;;;7.69;72.46;98047.50;5084722;28;20474;-69
2023/03/21 04:41:39;;;;;;;9.97;7.70;;;7.60;85.10;;;7.51;73.01;98030.00;5077984;28;20453;-69
2023/03/21 04:44:09;;;;;;;9.40;7.90;;;7.60;86.20;;;7.57;73.33;98031.88;5086431;28;20805;-69
2023/03/21 04:46:36;;;;;;;9.00;8.10;;;7.50;87.20;;;7.58;74.38;98055.06;5065297;28;20460;-70
2023/03/21 04:49:03;;;;;;;10.83;8.60;;;7.50;88.00;;;7.51;74.87;98051.50;5088960;28;20539;-69
2023/03/21 04:51:31;;;;;;;9.40;7.93;;;7.50;88.70;;;7.14;76.17;98040.00;5077116;28;20458;-69
2023/03/21 04:53:59;;;;;;;11.13;7.57;;;7.40;89.80;;;7.40;75.65;98049.34;5106622;27;20475;-66
2023/03/21 04:56:31;;;;;;;8.50;7.20;;;7.40;90.10;;;7.33;75.78;98036.66;5081531;28;20454;-70
2023/03/21 04:58:59;;;;;;;10.80;8.60;;;7.40;90.40;;;7.14;76.51;98040.84;5072321;28;20449;-67
2023/03/21 05:01:29;;;;;;;9.17;8.10;;;7.30;90.40;;;7.19;76.82;98043.78;5113024;27;20452;-68
2023/03/21 05:03:58;;;;;;;8.80;7.93;;;7.20;90.70;;;7.41;76.11;98046.44;5094665;27;20952;-70
2023/03/21 05:06:27;;;;;;;11.43;8.07;;;7.30;90.80;;;7.40;75.92;98043.97;5091267;28;21021;-68
2023/03/21 05:08:58;;;;;;;10.10;7.73;;;7.20;90.90;;;7.27;76.20;98040.13;5109289;27;22129;-71
2023/03/21 05:11:26;;;;;;;13.80;8.67;;;7.20;91.30;;;7.20;76.79;98036.53;5079755;28;20465;-68
2023/03/21 05:13:55;;;;;;;10.10;8.53;;;7.20;91.40;;;7.27;76.79;98040.13;5068262;28;20478;-68
2023/03/21 05:16:29;;;;;;;8.40;7.47;;;7.20;91.40;;;7.24;77.25;98037.84;5100046;27;20451;-69
2023/03/21 05:19:02;;;;;;;9.23;8.20;;;7.20;91.30;;;7.24;77.05;98043.22;5081044;28;20458;-68
2023/03/21 05:21:32;;;;;;;11.20;8.90;;;7.20;91.50;;;7.39;76.55;98044.97;5077897;28;20486;-68
2023/03/21 05:24:02;;;;;;;16.30;8.73;;;7.30;91.40;;;7.46;76.19;98029.72;5111613;27;20444;-70
2023/03/21 05:26:30;;;;;;;9.43;7.40;;;7.40;91.00;;;7.53;75.63;98027.09;5079543;28;20464;-69
2023/03/21 05:28:58;;;;;;;9.60;8.60;;;7.50;90.60;;;7.55;75.64;98051.91;5072775;28;21081;-72
2023/03/21 05:31:27;;;;;;;11.90;8.77;;;7.50;90.60;;;7.51;75.59;98048.81;5073578;28;20453;-66
2023/03/21 05:33:54;;;;;;;11.40;9.00;;;7.50;90.70;;;7.27;75.63;98002.50;5072039;28;20478;-71
2023/03/21 05:36:23;;;;;;;11.57;8.30;;;7.60;90.50;;;7.63;75.55;98060.66;5069722;28;20965;-71
2023/03/21 05:38:50;;;;;;;11.80;8.50;;;7.60;90.50;;;7.72;75.03;98064.03;5066486;28;20490;-66
2023/03/21 05:41:20;;;;;;;10.33;7.80;;;7.70;90.20;;;7.75;74.83;98046.69;5072467;28;20915;-68
2023/03/21 05:43:48;;;;;;;9.40;8.23;;;7.70;90.20;;;7.88;74.75;98054.00;5073872;28;20467;-72
2023/03/21 05:46:16;;;;;;;13.10;8.40;;;7.80;90.00;;;7.98;74.64;98054.50;5086606;27;20457;-67
2023/03/21 05:48:43;;;;;;;11.27;8.27;;;7.90;89.70;;;8.20;74.04;98047.16;5066719;28;20958;-66
2023/03/21 05:51:10;;;;;;;12.30;8.87;;;8.00;89.60;;;8.25;72.73;98048.41;5103784;27;20449;-69
2023/03/21 05:53:39;;;;;;;13.07;9.57;;;8.10;87.80;;;8.38;72.99;98051.19;5087229;27;20502;-66
2023/03/21 05:56:08;;;;;;;12.60;8.90;;;8.20;87.10;;;8.44;71.95;98058.47;5066683;28;21246;-70
2023/03/21 05:58:37;;;;;;;11.27;8.93;;;8.30;86.50;;;8.59;71.28;98060.22;5084669;28;20985;-71
2023/03/21 06:01:05;;;;;;;11.30;10.07;;;8.40;86.10;;;8.56;71.35;98069.53;5078128;28;20503;-68
2023/03/21 06:03:32;;;;;;;11.73;9.17;;;8.50;85.50;;;8.70;70.34;98059.59;5081350;28;20474;-69
2023/03/21 06:05:59;;;;;;;10.80;8.50;;;8.50;85.00;;;8.79;69.52;98061.09;5070714;28;21384;-68
2023/03/21 06:08:26;;;;;;;9.47;8.57;;;8.70;84.20;;;8.72;70.10;98068.34;5110127;27;21119;-69
2023/03/21 06:10:55;;;;;;;10.23;8.13;;;8.70;83.60;;;8.72;69.21;98068.34;5075532;28;20530;-71
2023/03/21 06:13:22;;;;;;;9.47;8.47;;;8.70;83.40;;;8.67;69.12;98065.41;5097422;27;20903;-70
2023/03/21 06:15:49;;;;;;;10.90;8.60;;;8.70;82.60;;;8.70;68.83;98066.88;5111312;27;20558;-70
2023/03/21 06:18:17;;;;;;;10.00;8.40;;;8.70;82.10;;;8.73;67.98;98051.16;5068758;28;20466;-70
2023/03/21 06:20:44;;;;;;;10.00;8.60;;;8.80;81.70;;;8.70;67.79;98010.31;5079580;28;20520;-69
2023/03/21 06:23:11;;;;;;;12.03;8.73;;;8.90;81.70;;;9.09;67.34;98068.00;5109497;27;20445;-69
2023/03/21 06:25:38;;;;;;;9.67;6.83;;;9.00;81.40;;;9.06;66.87;98054.94;5083999;28;20446;-71
2023/03/21 06:28:07;;;;;;;11.00;8.43;;;9.10;81.00;;;8.97;67.50;98064.25;5091521;27;20443;-71
2023/03/21 06:30:34;;;;;;;8.90;7.87;;;9.10;80.70;;;8.98;66.86;98066.75;5076894;28;20453;-70
2023/03/21 06:33:01;;;;;;;9.63;6.70;;;9.10;80.40;;;8.85;66.43;98064.84;5079986;28;20470;-71
2023/03/21 06:35:28;;;;;;;7.70;6.73;;;9.10;80.10;;;8.88;66.32;98055.53;5079171;28;20458;-70
2023/03/21 06:37:57;;;;;;;17.40;8.47;;;9.00;80.20;;;9.21;65.87;98070.94;5075734;28;20925;-71
2023/03/21 06:40:24;;;;;;;10.87;7.30;;;9.10;80.20;;;9.29;65.33;98067.22;5079837;28;20458;-67
2023/03/21 06:42:52;;;;;;;12.20;8.07;;;9.30;79.90;;;9.38;65.88;98081.31;5083580;28;20448;-70
2023/03/21 06:45:20;;;;;;;8.87;7.40;;;9.40;79.90;;;9.15;65.52;98072.59;5103496;28;20526;-69
2023/03/21 06:47:48;;;;;;;13.00;8.27;;;9.30;79.40;;;9.17;66.07;98066.97;5127995;27;20461;-71
2023/03/21 06:50:15;;;;;;;8.93;7.97;;;9.20;79.80;;;9.31;65.97;98070.53;5126346;27;20504;-68
2023/03/21 06:52:44;;;;;;;15.30;8.77;;;9.40;80.00;;;9.49;66.20;98029.47;5084371;28;20819;-70
2023/03/21 06:55:12;;;;;;;9.83;8.07;;;9.60;80.90;;;9.85;64.84;98071.34;5082416;28;20464;-68
2023/03/21 06:57:39;;;;;;;13.13;8.50;;;9.70;79.80;;;10.28;63.90;98063.81;5076870;28;20453;-70
2023/03/21 07:00:09;;;;;;;10.90;8.93;;;10.00;78.80;;;10.11;64.14;98063.41;5081190;28;20469;-70
2023/03/21 07:02:38;;;;;;;10.03;9.03;;;10.10;78.40;;;10.06;64.24;98067.59;5088342;28;20442;-72
2023/03/21 07:05:06;;;;;;;9.00;8.10;;;10.00;78.20;;;10.20;63.76;98070.25;5091789;28;20519;-71
2023/03/21 07:07:34;;;;;;;12.50;8.73;;;10.20;78.10;;;10.38;63.39;98074.97;5081181;28;21076;-69
2023/03/21 07:10:01;;;;;;;18.17;9.97;;;10.20;78.20;;;10.24;63.18;98028.28;5083435;28;20461;-70
2023/03/21 07:12:28;;;;;;;13.90;8.40;;;10.50;77.60;;;10.50;63.66;98069.78;5069950;28;20951;-70
2023/03/21 07:14:56;;;;;;;15.37;9.83;;;10.50;77.50;;;10.65;62.82;98069.50;5079680;28;20536;-70
2023/03/21 07:17:23;;;;;;;11.03;8.27;;;10.70;77.70;;;10.98;61.99;98070.38;5091486;27;20494;-69
2023/03/21 07:19:51;;;;;;;16.20;9.00;;;10.80;76.90;;;10.50;62.18;98029.25;5081330;28;20467;-70
2023/03/21 07:22:19;;;;;;;10.93;9.23;;;10.90;76.60;;;10.79;61.79;98064.03;5097659;27;20453;-69
2023/03/21 07:24:47;;;;;;;11.40;8.73;;;10.80;76.70;;;11.27;61.11;98065.41;5078925;28;20451;-68
2023/03/21 07:27:15;;;;;;;11.80;9.33;;;11.00;76.40;;;11.68;59.29;98065.94;5073437;28;21205;-71
2023/03/21 07:29:42;;;;;;;13.27;7.70;;;11.40;76.00;;;11.88;57.97;98069.28;5075984;28;20456;-70
2023/03/21 07:32:10;;;;;;;12.13;9.03;;;11.60;74.50;;;11.57;58.72;98054.78;5086826;28;20539;-70
2023/03/21 07:34:39;;;;;;;9.77;7.90;;;11.60;74.10;;;11.14;59.39;98067.16;5074127;28;20475;-68
2023/03/21 07:37:08;;;;;;;14.03;8.60;;;11.40;73.90;;;11.51;58.83;98068.34;5074100;28;20458;-71
2023/03/21 07:39:36;;;;;;;13.17;7.77;;;11.40;74.30;;;11.56;58.74;98071.25;5086951;28;20469;-71
2023/03/21 07:42:03;;;;;;;11.63;7.43;;;11.50;74.30;;;11.84;56.77;98070.78;5078929;28;20458;-70
2023/03/21 07:44:32;;;;;;;9.60;7.73;;;11.70;72.90;;;11.66;57.59;98076.16;5076499;28;20451;-69
2023/03/21 07:46:59;;;;;;;8.60;6.90;;;11.60;72.90;;;11.59;55.86;98074.31;5074263;28;20511;-69
2023/03/21 07:49:26;;;;;;;9.37;7.10;;;11.60;71.60;;;11.55;55.81;98083.13;5087632;27;20483;-70
2023/03/21 07:51:54;;;;;;;9.23;6.50;;;11.50;71.00;;;11.17;58.06;98077.53;5091493;28;20542;-68
2023/03/21 07:54:22;;;;;;;11.50;8.10;;;11.10;71.80;;;11.33;57.00;98070.78;5087640;28;20474;-69
2023/03/21 07:56:50;;;;;;;11.30;7.40;;;11.10;71.90;;;11.42;57.31;98074.03;5068991;28;20811;-69
2023/03/21 07:59:17;;;;;;;10.77;7.40;;;11.20;72.00;;;11.45;57.02;98067.38;5074822;28;20466;-70
2023/03/21 08:01:44;;;;;;;10.00;6.60;;;11.30;71.90;;;11.76;56.64;98079.19;5070406;28;20466;-69
2023/03/21 08:04:12;;;;;;;14.83;7.30;;;11.40;71.70;;;11.61;55.55;98064.13;5069496;28;21834;-70
2023/03/21 08:06:39;;;;;;;7.67;6.67;;;11.50;70.80;;;11.37;54.57;98071.16;5073563;28;20561;-70
2023/03/21 08:09:07;;;;;;;7.17;6.47;;;11.50;69.10;;;11.62;54.59;98063.06;5086160;28;20459;-70
2023/03/21 08:11:36;;;;;;;8.70;6.37;;;11.40;69.00;;;11.42;55.32;98070.50;5076892;28;20440;-70
2023/03/21 08:14:03;;;;;;;7.83;6.33;;;11.50;69.30;;;11.34;55.24;98071.59;5087602;28;20470;-68
2023/03/21 08:16:30;;;;;;;7.27;6.53;;;11.30;68.80;;;11.64;54.98;98067.44;5078434;28;20515;-70
2023/03/21 08:18:58;;;;;;;9.10;6.53;;;11.40;69.00;;;11.80;54.50;98066.88;5073058;28;20454;-70
2023/03/21 08:21:26;;;;;;;7.03;5.97;;;11.50;68.90;;;11.66;54.75;98068.03;5082506;28;20476;-70
2023/03/21 08:23:53;;;;;;;8.00;6.47;;;11.60;68.90;;;11.59;54.85;98074.31;5078924;28;20464;-71
2023/03/21 08:26:25;;;;;;;8.10;5.33;;;11.60;68.70;;;11.45;54.37;98065.50;5086774;28;20874;-68
2023/03/21 08:28:54;;;;;;;9.50;5.63;;;11.60;67.40;;;11.59;54.35;98068.09;5088031;28;20507;-69
2023/03/21 08:31:22;;;;;;;6.40;5.50;;;11.60;67.80;;;11.55;53.02;98056.88;5108738;27;20534;-71
2023/03/21 08:33:53;;;;;;;9.70;5.57;;;11.60;66.30;;;11.64;52.83;98064.72;5088250;28;20491;-71
2023/03/21 08:36:20;;;;;;;6.47;5.07;;;11.60;66.20;;;11.79;52.77;98061.66;5086937;28;20449;-70
2023/03/21 08:38:52;;;;;;;5.90;5.30;;;11.70;66.00;;;11.86;51.97;98062.44;5083846;28;20454;-70
2023/03/21 08:41:20;;;;;;;6.67;5.23;;;11.80;65.30;;;11.77;52.43;98059.19;5098051;27;20441;-70
2023/03/21 08:43:48;;;;;;;6.57;5.50;;;11.70;65.20;;;11.76;52.06;98058.34;5099821;28;20463;-72
2023/03/21 08:46:17;;;;;;;6.27;4.97;;;11.70;64.80;;;12.06;51.91;98051.47;5100081;27;20518;-69
2023/03/21 08:48:44;;;;;;;6.70;5.03;;;11.80;64.90;;;12.28;51.30;98053.72;5086081;28;20456;-70
2023/03/21 08:51:11;;;;;;;7.10;5.03;;;12.00;64.40;;;11.88;50.32;98055.75;5101314;28;20455;-70
2023/03/21 08:53:40;;;;;;;6.50;4.30;;;12.00;62.30;;;11.85;50.44;98056.19;5115238;27;20452;-70
2023/03/21 08:56:09;;;;;;;5.00;4.50;;;11.90;62.20;;;12.00;50.67;98053.16;5107561;28;20510;-70
2023/03/21 08:58:37;;;;;;;9.47;5.63;;;11.90;62.70;;;11.49;51.50;98052.34;5081918;28;20462;-68
2023/03/21 09:01:05;;;;;;;7.27;5.30;;;11.80;62.40;;;11.40;52.26;98043.69;5088542;28;20499;-71
2023/03/21 09:03:34;;;;;;;6.43;5.03;;;11.60;63.00;;;11.55;52.27;98046.03;5080016;28;20538;-70
2023/03/21 09:06:01;;;;;;;7.67;5.87;;;11.60;63.60;;;11.72;52.13;98051.75;5084521;28;20519;-70
2023/03/21 09:08:31;;;;;;;7.80;5.03;;;11.70;63.20;;;11.73;51.13;98041.72;5081909;28;20512;-69
2023/03/21 09:10:58;;;;;;;8.67;5.30;;;11.80;62.40;;;11.61;51.39;98045.19;5078878;28;20463;-70
2023/03/21 09:13:27;;;;;;;7.80;4.97;;;11.80;62.10;;;11.57;51.28;98035.00;5073743;28;20550;-68
2023/03/21 09:15:56;;;;;;;5.70;4.93;;;11.80;62.10;;;11.82;51.43;98042.28;5079209;28;20954;-69
2023/03/21 09:18:44;;;;;;;8.30;4.50;;;11.80;62.60;;;11.96;54.17;98048.41;5078259;28;20927;-69
2023/03/21 09:21:13;;;;;;;5.93;4.93;;;11.90;64.70;;;12.22;50.76;98043.78;5087447;28;21006;-68
2023/03/21 09:23:43;;;;;;;7.00;4.90;;;12.00;62.50;;;12.34;50.28;98036.53;5076695;28;20955;-70
2023/03/21 09:26:12;;;;;;;5.33;4.83;;;12.20;62.00;;;12.53;49.70;98034.66;5094364;27;20854;-69
2023/03/21 09:28:40;;;;;;;6.10;4.97;;;12.40;62.10;;;12.43;49.60;98035.19;5076690;28;20478;-68
2023/03/21 09:31:10;;;;;;;6.77;4.63;;;12.40;61.60;;;12.60;49.74;98031.84;5070525;28;20458;-68
2023/03/21 09:33:39;;;;;;;7.60;5.13;;;12.40;61.70;;;12.51;49.96;98034.06;5077834;28;20448;-70
2023/03/21 09:36:12;;;;;;;5.60;5.10;;;12.50;61.60;;;12.51;50.07;98035.94;5077497;28;20468;-70
2023/03/21 09:38:41;;;;;;;6.03;4.40;;;12.40;61.70;;;12.43;50.42;98034.34;5106375;27;20455;-70
2023/03/21 09:41:27;;;;;;;9.30;5.77;;;12.60;61.50;;;12.80;50.06;98039.72;5074905;28;20487;-70
2023/03/21 09:44:09;;;;;;;7.03;4.77;;;12.70;61.60;;;12.91;49.02;98035.41;5081420;28;20465;-70
2023/03/21 09:46:44;;;;;;;6.23;5.17;;;12.80;61.20;;;12.96;49.57;98027.41;5090478;27;20551;-69
2023/03/21 09:49:19;;;;;;;7.20;4.50;;;12.80;61.40;;;13.21;49.76;98023.69;5108413;27;20453;-68
2023/03/21 09:51:51;;;;;;;7.27;5.03;;;13.00;62.00;;;13.28;49.35;98018.19;5073031;28;20457;-68
2023/03/21 09:54:26;;;;;;;9.83;5.47;;;13.00;61.40;;;13.21;49.50;98018.28;5075942;28;20541;-69
2023/03/21 09:56:57;;;;;;;6.13;5.10;;;13.20;61.30;;;13.11;49.38;98018.00;5077333;28;20458;-67
2023/03/21 09:59:38;;;;;;;5.03;4.43;;;13.20;61.20;;;13.18;49.55;98016.03;5072878;28;20471;-69
2023/03/21 10:02:35;;;;;;;7.53;5.43;;;13.10;61.20;;;13.35;48.80;98018.06;5093251;27;20490;-69
2023/03/21 10:05:12;;;;;;;7.20;4.73;;;13.30;60.90;;;13.24;48.45;97990.69;5087989;28;20436;-69
2023/03/21 10:07:47;;;;;;;6.40;5.10;;;13.40;60.60;;;13.02;49.59;98010.22;5083699;28;20454;-69
2023/03/21 10:10:20;;;;;;;5.60;4.80;;;13.20;60.50;;;13.31;49.29;98010.41;5089885;27;20446;-68
2023/03/21 10:12:53;;;;;;;5.73;4.80;;;13.20;60.70;;;13.49;49.28;98003.25;5108536;27;21000;-69
2023/03/21 10:15:24;;;;;;;8.47;5.00;;;13.30;61.10;;;13.71;48.69;97997.22;5090652;28;20876;-69
2023/03/21 10:17:59;;;;;;;7.43;5.03;;;13.50;60.90;;;13.65;48.65;97995.47;5107591;27;21211;-68
2023/03/21 10:20:30;;;;;;;7.53;5.30;;;13.50;60.70;;;13.49;49.50;97995.13;5079215;28;20444;-68
2023/03/21 10:23:00;;;;;;;6.30;5.13;;;13.50;60.70;;;13.80;47.70;97984.97;5071223;28;21062;-69
2023/03/21 10:25:33;;;;;;;5.43;3.90;;;13.60;60.00;;;13.59;44.95;97965.50;5069326;28;20823;-68
2023/03/21 10:28:02;;;;;;;5.30;3.33;;;13.60;57.30;;;13.19;44.95;97933.59;5080710;28;20460;-68
2023/03/21 10:30:39;;;;;;;5.57;3.90;;;13.60;56.10;;;13.32;45.66;97986.78;5074468;28;20966;-68
2023/03/21 10:33:11;;;;;;;4.47;3.57;;;13.40;56.00;;;13.47;45.28;97978.25;5087144;28;20450;-68
2023/03/21 10:35:41;;;;;;;4.73;4.30;;;13.40;55.90;;;13.54;45.42;97980.84;5095318;28;20822;-68
2023/03/21 10:38:16;;;;;;;8.10;4.30;;;13.60;56.30;;;13.80;45.43;97971.38;5087665;27;20506;-68
2023/03/21 10:40:45;;;;;;;5.33;4.10;;;13.60;56.60;;;14.10;45.21;97967.69;5084262;28;20457;-69
2023/03/21 10:43:34;;;;;;;4.90;4.40;;;13.80;56.70;;;14.08;46.09;97964.38;5099803;27;20992;-68